Metar Cercanos

 

LEPA - Palma De Mallorc, Spain
Distance from station: ONO 38km
Actualización: 22/04/2018 06:30
Despejado
Despejado
 Viento del NNE
Viento: NNE 2 km/h
Temperatura: 10°C
Rocío: 9°C
Humedad: 94%
Barómetro: 1018 hPa
Resumen: Despejado
Visibility: greater than 10 km
2018/04/22 04:30 LEPA 220430Z 03001KT CAVOK 10/09 Q1018 NOSIG
LEMH - Mahon/Menorca Is, Spain
Distance from station: ENE 105km
Actualización: 22/04/2018 06:30
Despejado
Despejado
 Viento del NE
Viento: NE 2 km/h
Temperatura: 12°C
Rocío: 11°C
Humedad: 94%
Barómetro: 1018 hPa
Resumen: Despejado
Visibility: greater than 10 km
2018/04/22 04:30 LEMH 220430Z 05001KT CAVOK 12/11 Q1018
 
LEIB - Ibiza/Es Codola, Spain
Distance from station: OSO 165km
Actualización: 22/04/2018 06:30
Despejado
Despejado
 Viento del NNE
Viento: NNE 6 km/h
Temperatura: 15°C
Rocío: 10°C
Humedad: 72%
Barómetro: 1017 hPa
Resumen: Despejado
Visibility: greater than 10 km
2018/04/22 04:30 LEIB 220430Z 02003KT 350V060 CAVOK 15/10 Q1017 NOSIG
LEBL - Barcelona Airpor, Spain
Distance from station: NNO 225km
Actualización: 22/04/2018 06:30
Few Clouds
Few Clouds
 Viento del NO
Viento: NO 15 km/h
Temperatura: 14°C
Rocío: 9°C
Humedad: 72%
Barómetro: 1017 hPa
Clouds: Few Clouds
Visibility: 10 km
Cloud details: Few Clouds 1219 m
2018/04/22 04:30 LEBL 220430Z 31008KT 9999 FEW040 14/09 Q1017 NOSIG
 
LEVC - Valencia (civ/Mi, Spain
Distance from station: NO 188km
Actualización: 22/04/2018 06:30
Few Clouds
Few Clouds
 Viento del NO
Viento: NO 9 km/h
Temperatura: 13°C
Rocío: 10°C
Humedad: 82%
Barómetro: 1018 hPa
Clouds: Few Clouds
Visibility: 10 km
Cloud details: Few Clouds 1219 m
2018/04/22 04:30 LEVC 220430Z 31005KT 9999 FEW040 13/10 Q1018 NOSIG
LEGE - Gerona/Costa Bra, Spain
Distance from station: N 276km
Actualización: 22/04/2018 06:30
Few Clouds
Few Clouds
 Viento del calm
Viento: Calma
Temperatura: 9°C
Rocío: 8°C
Humedad: 94%
Barómetro: 1017 hPa
Clouds: Few Clouds
Visibility: 10 km
Cloud details: Few Clouds 1524 m
2018/04/22 04:30 LEGE 220430Z 00000KT 9999 FEW050 09/08 Q1017
 
LEAL - Alicante/El Alte, Spain
Distance from station: OSO 344km
Actualización: 22/04/2018 06:30
Despejado
Despejado
 Viento del NNO
Viento: NNO 6 km/h
Temperatura: 15°C
Rocío: 10°C
Humedad: 72%
Barómetro: 1016 hPa
Resumen: Despejado
Visibility: greater than 10 km
2018/04/22 04:30 LEAL 220430Z 33003KT CAVOK 15/10 Q1016 NOSIG
LEAM - Almeria Airport, Spain
Distance from station: SSO 56km
Actualización: 22/04/2018 06:30
Despejado
Despejado
 Viento del NO
Viento: NO 17 km/h
Temperatura: 21°C
Rocío: 6°C
Humedad: 38%
Barómetro: 1013 hPa
Resumen: Despejado
Visibility: greater than 10 km
2018/04/22 04:30 LEAM 220430Z 32009KT 290V010 CAVOK 21/06 Q1013
 
LEZG - Zaragoza (mil/Ci, Spain
Distance from station: NO 431km
Actualización: 22/04/2018 06:30
Despejado
Despejado
 Viento del E
Viento: E 7 km/h
Temperatura: 13°C
Rocío: 10°C
Humedad: 82%
Barómetro: 1018 hPa
Resumen: Despejado
Visibility: greater than 10 km
2018/04/22 04:30 LEZG 220430Z 08004KT CAVOK 13/10 Q1018
LEMD - Madrid/Barajas, Spain
Distance from station: ONO 234km
Actualización: 22/04/2018 06:30
Despejado
Despejado
 Viento del NNO
Viento: NNO 13 km/h
Temperatura: 11°C
Rocío: 9°C
Humedad: 88%
Barómetro: 1018 hPa
Resumen: Despejado
Visibility: greater than 10 km
2018/04/22 04:30 LEMD 220430Z 34007KT CAVOK 11/09 Q1018 NOSIG
 
LEGR - Granada Airport, Spain
Distance from station: OSO 62km
Actualización: 22/04/2018 06:30
Despejado
Despejado
 Viento del varies
Viento: varies 4 km/h
Temperatura: 10°C
Rocío: 9°C
Humedad: 94%
Barómetro: 1013 hPa
Resumen: Despejado
Visibility: greater than 10 km
2018/04/22 04:30 LEGR 220430Z VRB02KT CAVOK 10/09 Q1013
LEMG - Malaga (civ/Mil), Spain
Distance from station: OSO 227km
Actualización: 22/04/2018 06:30
Despejado
Despejado
 Viento del calm
Viento: Calma
Temperatura: 14°C
Rocío: 12°C
Humedad: 88%
Barómetro: 1012 hPa
Resumen: Despejado
Visibility: greater than 10 km
2018/04/22 04:30 LEMG 220430Z 00000KT CAVOK 14/12 Q1012 NOSIG
 
LEZL - Sevilla (civ/Mil, Spain
Distance from station: S 318km
Actualización: 22/04/2018 06:30
Mist, Parcialmente nuboso
Mist, Parcialmente nuboso
 Viento del varies
Viento: varies 4 km/h
Temperatura: 15°C
Rocío: 15°C
Humedad: 100%
Barómetro: 1012 hPa
Resumen: Mist
Clouds: Parcialmente nuboso
Visibility: 3 km
2018/04/22 04:30 LEZL 220430Z VRB02KT 3200 BR NSC 15/15 Q1012 NOSIG
LEVT - Vitoria, Spain
Distance from station: NO 226km
Actualización: 22/04/2018 06:30
Despejado
Despejado
 Viento del SSO
Viento: SSO 9 km/h
Temperatura: 11°C
Rocío: 9°C
Humedad: 88%
Barómetro: 1017 hPa
Resumen: Despejado
Visibility: greater than 10 km
2018/04/22 04:30 LEVT 220430Z 21005KT CAVOK 11/09 Q1017
 
LEBB - Bilbao/Sondica, Spain
Distance from station: NNO 235km
Actualización: 22/04/2018 06:30
Despejado
Despejado
 Viento del ONO
Viento: ONO 9 km/h
Temperatura: 16°C
Rocío: 12°C
Humedad: 77%
Barómetro: 1016 hPa
Resumen: Despejado
Visibility: greater than 10 km
2018/04/22 04:30 LEBB 220430Z 29005KT 260V330 CAVOK 16/12 Q1016 NOSIG
LESO - San Sebastian/Fu, Spain
Distance from station: N 231km
Actualización: 22/04/2018 06:30
Despejado
Despejado
 Viento del SO
Viento: SO 7 km/h
Temperatura: 21°C
Rocío: 8°C
Humedad: 43%
Barómetro: 1014 hPa
Resumen: Despejado
Visibility: greater than 10 km
2018/04/22 04:30 LESO 220430Z 22004KT 200V260 CAVOK 21/08 Q1014
 
LEVD - Valladolid(Mil/C, Spain
Distance from station: ONO 239km
Actualización: 21/04/2018 21:30
NOT Current
Despejado
Despejado
 Viento del NO
Viento: NO 4 km/h
Temperatura: 14°C
Rocío: 8°C
Humedad: 67%
Barómetro: 1018 hPa
Resumen: Despejado
Visibility: greater than 10 km
2018/04/21 19:30 LEVD 211930Z 32002KT CAVOK 14/08 Q1018
LESA - Salamanca (civ/M, Spain
Distance from station: ONO 349km
Actualización: 21/04/2018 20:00
NOT Current
Parcialmente nuboso
Parcialmente nuboso
 Viento del ONO
Viento: ONO 24 km/h
Temperatura: 15°C
Rocío: 10°C
Humedad: 72%
Barómetro: 1018 hPa
Clouds: Parcialmente nuboso
Visibility: 10 km
Cloud details: Few Clouds 610 m
Parcialmente nuboso 762 m
2018/04/21 18:00 LESA 211800Z 29013KT 260V320 9999 FEW020 SCT025 15/10 Q1018
 
LEXJ - Santander/Paraya, Spain
Distance from station: NNO 247km
Actualización: 22/04/2018 06:30
Parcialmente nuboso
Parcialmente nuboso
 Viento del SO
Viento: SO 11 km/h
Temperatura: 15°C
Rocío: 12°C
Humedad: 82%
Barómetro: 1016 hPa
Clouds: Parcialmente nuboso
Visibility: 8 km
2018/04/22 04:30 LEXJ 220430Z 22006KT 190V250 8000 NSC 15/12 Q1016
LEAS - Asturias/Aviles, Spain
Distance from station: NO 214km
Actualización: 22/04/2018 06:30
Despejado
Despejado
 Viento del O
Viento: O 6 km/h
Temperatura: 12°C
Rocío: 10°C
Humedad: 88%
Barómetro: 1015 hPa
Resumen: Despejado
Visibility: greater than 10 km
2018/04/22 04:30 LEAS 220430Z 27003KT 230V320 CAVOK 12/10 Q1015 NOSIG
 
LECO - La Coruna/Alvedr, Spain
Distance from station: ONO 222km
Actualización: 22/04/2018 06:30
Parcialmente nuboso
Parcialmente nuboso
 Viento del varies
Viento: varies 2 km/h
Temperatura: 11°C
Rocío: 10°C
Humedad: 94%
Barómetro: 1016 hPa
Clouds: Parcialmente nuboso
Visibility: 6 km
2018/04/22 04:30 LECO 220430Z VRB01KT 6000 NSC 11/10 Q1016 NOSIG
LEVX - Vigo/Peinador, Spain
Distance from station: O 214km
Actualización: 22/04/2018 06:30
Parcialmente nuboso
Parcialmente nuboso
 Viento del SO
Viento: SO 7 km/h
Temperatura: 13°C
Rocío: 12°C
Humedad: 94%
Barómetro: 1016 hPa
Clouds: Parcialmente nuboso
Visibility: 9 km
2018/04/22 04:30 LEVX 220430Z 22004KT 9000 NSC 13/12 Q1016 NOSIG